Time;durP1;ratioP1;P1;durP2;ratioP2;P2;SDS_P1;SDS_P2;PMS_P1;PMS_P2;Temp;Humidity;BMP_temperature;BMP_pressure;BME280_temperature;BME280_humidity;BME280_pressure;Samples;Min_cycle;Max_cycle;Signal;HPM_P1;HPM_P2
2021/07/19 00:01:49;;;;;;;0.10;0.10;;;;;;;;;;5048360;28;20029;-79
2021/07/19 00:04:15;;;;;;;0.10;0.10;;;;;;;;;;5049287;28;20053;-79
2021/07/19 00:06:41;;;;;;;0.10;0.10;;;;;;;;;;5049308;28;20033;-80
2021/07/19 00:09:07;;;;;;;0.10;0.10;;;;;;;;;;5049122;28;20399;-79
2021/07/19 00:11:33;;;;;;;0.08;0.08;;;;;;;;;;5048344;28;20372;-79
2021/07/19 00:13:59;;;;;;;0.10;0.10;;;;;;;;;;5049558;28;20032;-80
2021/07/19 00:16:25;;;;;;;0.10;0.10;;;;;;;;;;5049190;28;20018;-80
2021/07/19 00:18:52;;;;;;;0.10;0.10;;;;;;;;;;5049184;28;20066;-80
2021/07/19 00:21:18;;;;;;;0.43;0.10;;;;;;;;;;5052615;28;20029;-80
2021/07/19 00:23:44;;;;;;;0.10;0.10;;;;;;;;;;5053199;28;20280;-80
2021/07/19 00:26:10;;;;;;;0.10;0.10;;;;;;;;;;5053556;28;20029;-80
2021/07/19 00:28:36;;;;;;;0.13;0.13;;;;;;;;;;5051351;28;20041;-80
2021/07/19 00:31:02;;;;;;;0.00;0.00;;;;;;;;;;5053028;28;20032;-79
2021/07/19 00:33:28;;;;;;;0.10;0.10;;;;;;;;;;5051633;28;20056;-79
2021/07/19 00:35:53;;;;;;;0.20;0.20;;;;;;;;;;5052981;28;20112;-78
2021/07/19 00:38:19;;;;;;;0.10;0.10;;;;;;;;;;5052655;28;20037;-79
2021/07/19 00:40:45;;;;;;;0.10;0.10;;;;;;;;;;5052791;28;20037;-79
2021/07/19 00:43:12;;;;;;;0.10;0.10;;;;;;;;;;5052689;28;20052;-79
2021/07/19 00:45:38;;;;;;;0.10;0.10;;;;;;;;;;5052189;28;20075;-79
2021/07/19 00:48:05;;;;;;;0.00;0.00;;;;;;;;;;5052398;28;20396;-79
2021/07/19 00:50:33;;;;;;;0.10;0.10;;;;;;;;;;5052707;28;20036;-79
2021/07/19 00:53:00;;;;;;;0.00;0.00;;;;;;;;;;5052464;28;20063;-80
2021/07/19 00:55:33;;;;;;;0.30;0.30;;;;;;;;;;5052104;28;20143;-80
2021/07/19 00:58:00;;;;;;;0.10;0.10;;;;;;;;;;5052157;28;20087;-80
2021/07/19 01:00:26;;;;;;;;;;;;;;;;;;5052689;28;20037;-80
2021/07/19 01:02:53;;;;;;;0.00;0.00;;;;;;;;;;5052126;28;20334;-79
2021/07/19 01:05:19;;;;;;;0.10;0.10;;;;;;;;;;5051921;28;20094;-79
2021/07/19 01:07:47;;;;;;;0.10;0.10;;;;;;;;;;5052201;28;20037;-80
2021/07/19 01:10:17;;;;;;;;;;;;;;;;;;5052524;28;20034;-79
2021/07/19 01:12:47;;;;;;;0.10;0.10;;;;;;;;;;5052213;28;19957;-80
2021/07/19 01:15:13;;;;;;;0.17;0.17;;;;;;;;;;5052124;28;20070;-79
2021/07/19 01:17:40;;;;;;;0.13;0.13;;;;;;;;;;5050168;28;20029;-80
2021/07/19 01:20:06;;;;;;;0.10;0.10;;;;;;;;;;5051947;28;20091;-79
2021/07/19 01:22:35;;;;;;;0.23;0.23;;;;;;;;;;5051838;28;20087;-78
2021/07/19 01:25:10;;;;;;;0.13;0.13;;;;;;;;;;5051945;28;20100;-79
2021/07/19 01:27:54;;;;;;;0.10;0.10;;;;;;;;;;5051536;28;20025;-79
2021/07/19 01:30:21;;;;;;;0.00;0.00;;;;;;;;;;5051427;28;20017;-80
2021/07/19 01:32:48;;;;;;;0.15;0.15;;;;;;;;;;5051449;28;20184;-79
2021/07/19 01:35:14;;;;;;;;;;;;;;;;;;5052077;28;20025;-78
2021/07/19 01:37:41;;;;;;;0.10;0.10;;;;;;;;;;5051174;28;19914;-79
2021/07/19 01:40:08;;;;;;;0.10;0.10;;;;;;;;;;5050179;28;20028;-79
2021/07/19 01:42:34;;;;;;;0.10;0.10;;;;;;;;;;5051579;28;20166;-78
2021/07/19 01:45:01;;;;;;;0.10;0.10;;;;;;;;;;5051232;28;20067;-80
2021/07/19 01:47:28;;;;;;;0.10;0.10;;;;;;;;;;5052153;28;20032;-78
2021/07/19 01:49:54;;;;;;;0.10;0.10;;;;;;;;;;5051110;28;20036;-79
2021/07/19 01:52:20;;;;;;;0.10;0.10;;;;;;;;;;5051287;28;20479;-80
2021/07/19 01:54:48;;;;;;;0.10;0.10;;;;;;;;;;5051008;28;20029;-81
2021/07/19 01:57:14;;;;;;;0.10;0.10;;;;;;;;;;5051168;28;20025;-81
2021/07/19 01:59:41;;;;;;;0.17;0.17;;;;;;;;;;5050883;28;20071;-81
2021/07/19 02:02:07;;;;;;;0.10;0.10;;;;;;;;;;5049790;28;20029;-82
2021/07/19 02:04:33;;;;;;;0.10;0.10;;;;;;;;;;5050783;28;20132;-80
2021/07/19 02:06:59;;;;;;;0.00;0.00;;;;;;;;;;5050647;28;20096;-81
2021/07/19 02:09:27;;;;;;;0.10;0.10;;;;;;;;;;5050944;28;20033;-81
2021/07/19 02:11:53;;;;;;;0.10;0.10;;;;;;;;;;5050838;28;20039;-80
2021/07/19 02:14:19;;;;;;;0.10;0.10;;;;;;;;;;5051122;28;20049;-79
2021/07/19 02:16:50;;;;;;;0.10;0.10;;;;;;;;;;5050746;28;20094;-79
2021/07/19 02:19:17;;;;;;;0.08;0.08;;;;;;;;;;5050005;28;20391;-79
2021/07/19 02:21:43;;;;;;;0.10;0.10;;;;;;;;;;5050820;28;20033;-79
2021/07/19 02:24:10;;;;;;;0.10;0.10;;;;;;;;;;5050691;28;20025;-79
2021/07/19 02:26:36;;;;;;;0.10;0.10;;;;;;;;;;5050620;28;20044;-79
2021/07/19 02:29:03;;;;;;;0.10;0.10;;;;;;;;;;5050097;28;20417;-80
2021/07/19 02:31:29;;;;;;;0.10;0.10;;;;;;;;;;5051117;28;20025;-79
2021/07/19 02:33:55;;;;;;;0.10;0.10;;;;;;;;;;5050585;28;20422;-79
2021/07/19 02:36:22;;;;;;;0.10;0.10;;;;;;;;;;5050886;28;20120;-79
2021/07/19 02:38:48;;;;;;;0.10;0.10;;;;;;;;;;5050219;28;20033;-80
2021/07/19 02:41:15;;;;;;;0.10;0.10;;;;;;;;;;5051596;28;20537;-78
2021/07/19 02:43:42;;;;;;;0.15;0.15;;;;;;;;;;5050581;28;20274;-79
2021/07/19 02:46:09;;;;;;;0.20;0.20;;;;;;;;;;5050547;28;20353;-80
2021/07/19 02:48:36;;;;;;;;;;;;;;;;;;5050398;28;20050;-81
2021/07/19 02:51:03;;;;;;;0.10;0.10;;;;;;;;;;5050344;28;19908;-80
2021/07/19 02:53:30;;;;;;;0.10;0.10;;;;;;;;;;5050372;28;20017;-79
2021/07/19 02:55:57;;;;;;;0.10;0.10;;;;;;;;;;5050454;28;20118;-79
2021/07/19 02:58:23;;;;;;;0.13;0.13;;;;;;;;;;5050173;28;20099;-79
2021/07/19 03:00:50;;;;;;;0.10;0.10;;;;;;;;;;5049720;28;20079;-80
2021/07/19 03:03:19;;;;;;;0.13;0.13;;;;;;;;;;5050020;28;20059;-80
2021/07/19 03:05:50;;;;;;;0.25;0.25;;;;;;;;;;5050207;28;20104;-79
2021/07/19 03:08:16;;;;;;;0.10;0.10;;;;;;;;;;5048754;28;20079;-80
2021/07/19 03:10:44;;;;;;;0.10;0.10;;;;;;;;;;5049491;28;20044;-79
2021/07/19 03:13:16;;;;;;;0.10;0.10;;;;;;;;;;5050035;28;20029;-80
2021/07/19 03:15:43;;;;;;;0.32;0.32;;;;;;;;;;5048649;28;20029;-80
2021/07/19 03:18:10;;;;;;;0.20;0.20;;;;;;;;;;5050150;28;20036;-79
2021/07/19 03:20:39;;;;;;;0.22;0.22;;;;;;;;;;5049282;28;20056;-80
2021/07/19 03:23:06;;;;;;;0.20;0.20;;;;;;;;;;5050090;28;20043;-79
2021/07/19 03:25:33;;;;;;;0.20;0.20;;;;;;;;;;5050061;28;20162;-79
2021/07/19 03:27:59;;;;;;;;;;;;;;;;;;5050767;28;20028;-79
2021/07/19 03:30:25;;;;;;;0.10;0.10;;;;;;;;;;5049334;28;19905;-80
2021/07/19 03:32:51;;;;;;;0.22;0.22;;;;;;;;;;5048646;28;20079;-79
2021/07/19 03:35:19;;;;;;;0.10;0.10;;;;;;;;;;5050132;28;20028;-79
2021/07/19 03:37:46;;;;;;;0.20;0.20;;;;;;;;;;5049765;28;20040;-79
2021/07/19 03:40:12;;;;;;;0.10;0.10;;;;;;;;;;5049488;28;20048;-79
2021/07/19 03:42:39;;;;;;;0.10;0.10;;;;;;;;;;5049561;28;20075;-81
2021/07/19 03:45:05;;;;;;;0.10;0.10;;;;;;;;;;5049918;28;20375;-80
2021/07/19 03:47:31;;;;;;;0.10;0.10;;;;;;;;;;5049493;28;20074;-80
2021/07/19 03:49:58;;;;;;;0.20;0.20;;;;;;;;;;5049561;28;20112;-80
2021/07/19 03:52:24;;;;;;;0.10;0.10;;;;;;;;;;5049713;28;20028;-80
2021/07/19 03:54:50;;;;;;;0.20;0.20;;;;;;;;;;5050495;28;20064;-79
2021/07/19 03:57:16;;;;;;;0.10;0.10;;;;;;;;;;5053985;28;20303;-80
2021/07/19 03:59:43;;;;;;;0.20;0.20;;;;;;;;;;5053261;28;20468;-79
2021/07/19 04:02:12;;;;;;;0.10;0.10;;;;;;;;;;5053540;28;20037;-79
2021/07/19 04:04:44;;;;;;;0.22;0.22;;;;;;;;;;5053462;28;20037;-79
2021/07/19 04:07:12;;;;;;;0.17;0.17;;;;;;;;;;5053500;28;20161;-79
2021/07/19 04:09:38;;;;;;;0.25;0.25;;;;;;;;;;5053117;28;20035;-79
2021/07/19 04:12:06;;;;;;;0.10;0.10;;;;;;;;;;5053314;28;20047;-80
2021/07/19 04:14:32;;;;;;;0.10;0.10;;;;;;;;;;5051859;28;20152;-79
2021/07/19 04:16:58;;;;;;;0.17;0.17;;;;;;;;;;5053329;28;20049;-79
2021/07/19 04:19:24;;;;;;;0.10;0.10;;;;;;;;;;5051723;28;20055;-79
2021/07/19 04:21:52;;;;;;;0.17;0.17;;;;;;;;;;5052559;28;20048;-79
2021/07/19 04:24:18;;;;;;;;;;;;;;;;;;5053494;28;20510;-80
2021/07/19 04:26:44;;;;;;;0.20;0.20;;;;;;;;;;5053167;28;19936;-79
2021/07/19 04:29:10;;;;;;;0.15;0.15;;;;;;;;;;5052996;28;20290;-79
2021/07/19 04:31:36;;;;;;;0.10;0.10;;;;;;;;;;5052569;28;20257;-79
2021/07/19 04:34:02;;;;;;;0.10;0.10;;;;;;;;;;5052481;28;20040;-78
2021/07/19 04:36:28;;;;;;;0.10;0.10;;;;;;;;;;5051445;28;20025;-79
2021/07/19 04:38:55;;;;;;;0.10;0.10;;;;;;;;;;5052894;28;20433;-79
2021/07/19 04:41:21;;;;;;;0.20;0.20;;;;;;;;;;5050981;28;20040;-79
2021/07/19 04:43:47;;;;;;;0.10;0.10;;;;;;;;;;5052779;28;20379;-79
2021/07/19 04:46:14;;;;;;;0.13;0.13;;;;;;;;;;5052461;28;20456;-78
2021/07/19 04:48:40;;;;;;;0.22;0.22;;;;;;;;;;5053080;28;20456;-78
2021/07/19 04:51:06;;;;;;;0.10;0.10;;;;;;;;;;5052311;28;20132;-78
2021/07/19 04:53:32;;;;;;;0.30;0.30;;;;;;;;;;5052371;28;20029;-78
2021/07/19 04:56:00;;;;;;;0.20;0.20;;;;;;;;;;5052336;28;20029;-78
2021/07/19 04:58:25;;;;;;;;;;;;;;;;;;5053004;28;20143;-79
2021/07/19 05:01:00;;;;;;;0.20;0.20;;;;;;;;;;5051713;28;20000;-78
2021/07/19 05:03:28;;;;;;;0.10;0.10;;;;;;;;;;5052049;28;20055;-79
2021/07/19 05:05:55;;;;;;;0.10;0.10;;;;;;;;;;5051734;28;20468;-78
2021/07/19 05:08:21;;;;;;;;;;;;;;;;;;5052567;28;20063;-79
2021/07/19 05:10:48;;;;;;;0.20;0.20;;;;;;;;;;5052072;28;20493;-79
2021/07/19 05:13:15;;;;;;;0.10;0.10;;;;;;;;;;5051762;28;20044;-78
2021/07/19 05:15:41;;;;;;;0.10;0.10;;;;;;;;;;5052131;28;20095;-79
2021/07/19 05:18:08;;;;;;;0.10;0.10;;;;;;;;;;5052212;28;20025;-79
2021/07/19 05:20:36;;;;;;;0.20;0.20;;;;;;;;;;5051724;28;20033;-78
2021/07/19 05:23:02;;;;;;;0.10;0.10;;;;;;;;;;5051922;28;20037;-78
2021/07/19 05:25:30;;;;;;;0.20;0.20;;;;;;;;;;5051551;28;20051;-79
2021/07/19 05:27:59;;;;;;;0.10;0.10;;;;;;;;;;5052240;28;20430;-79
2021/07/19 05:30:28;;;;;;;0.20;0.20;;;;;;;;;;5052028;28;20039;-79
2021/07/19 05:32:54;;;;;;;0.20;0.17;;;;;;;;;;5051531;28;20396;-78
2021/07/19 05:35:21;;;;;;;0.17;0.17;;;;;;;;;;5051904;28;20032;-79
2021/07/19 05:37:47;;;;;;;0.30;0.30;;;;;;;;;;5051640;28;20075;-79
2021/07/19 05:40:14;;;;;;;0.10;0.10;;;;;;;;;;5051098;28;20041;-78
2021/07/19 05:42:41;;;;;;;0.20;0.20;;;;;;;;;;5050376;28;20112;-79
2021/07/19 05:45:07;;;;;;;0.28;0.20;;;;;;;;;;5051702;28;20570;-79
2021/07/19 05:47:33;;;;;;;0.10;0.10;;;;;;;;;;5051426;28;20021;-78
2021/07/19 05:50:00;;;;;;;0.20;0.20;;;;;;;;;;5051468;28;20100;-79
2021/07/19 05:52:26;;;;;;;0.20;0.20;;;;;;;;;;5051165;28;20033;-79
2021/07/19 05:54:52;;;;;;;0.17;0.17;;;;;;;;;;5051666;28;20134;-79
2021/07/19 05:57:18;;;;;;;0.20;0.20;;;;;;;;;;5051550;28;20040;-79
2021/07/19 05:59:44;;;;;;;0.20;0.20;;;;;;;;;;5050772;28;20029;-79
2021/07/19 06:02:10;;;;;;;0.20;0.20;;;;;;;;;;5049625;28;20037;-79
2021/07/19 06:04:36;;;;;;;0.20;0.20;;;;;;;;;;5050830;28;20044;-79
2021/07/19 06:07:02;;;;;;;0.10;0.10;;;;;;;;;;5051156;28;20051;-79
2021/07/19 06:09:28;;;;;;;0.20;0.20;;;;;;;;;;5050969;28;20282;-79
2021/07/19 06:11:54;;;;;;;0.20;0.20;;;;;;;;;;5050525;28;20622;-79
2021/07/19 06:14:20;;;;;;;0.10;0.10;;;;;;;;;;5050885;28;20103;-79
2021/07/19 06:16:50;;;;;;;0.20;0.20;;;;;;;;;;5049713;28;20115;-79
2021/07/19 06:19:16;;;;;;;0.20;0.20;;;;;;;;;;5050826;28;20040;-79
2021/07/19 06:21:42;;;;;;;0.10;0.10;;;;;;;;;;5050308;28;20044;-79
2021/07/19 06:24:08;;;;;;;0.17;0.17;;;;;;;;;;5051188;28;20025;-80
2021/07/19 06:26:34;;;;;;;0.20;0.20;;;;;;;;;;5049318;28;20043;-79
2021/07/19 06:29:00;;;;;;;0.20;0.20;;;;;;;;;;5050819;28;20021;-79
2021/07/19 06:31:26;;;;;;;0.20;0.20;;;;;;;;;;5050589;28;20540;-79
2021/07/19 06:33:52;;;;;;;0.15;0.10;;;;;;;;;;5050141;28;20041;-79
2021/07/19 06:36:18;;;;;;;0.10;0.10;;;;;;;;;;5050566;28;20158;-79
2021/07/19 06:38:44;;;;;;;0.20;0.20;;;;;;;;;;5050489;28;20100;-78
2021/07/19 06:41:12;;;;;;;0.20;0.20;;;;;;;;;;5049167;28;20068;-79
2021/07/19 06:43:39;;;;;;;0.10;0.10;;;;;;;;;;5049885;28;20051;-79
2021/07/19 06:46:05;;;;;;;0.20;0.20;;;;;;;;;;5050454;28;20456;-79
2021/07/19 06:48:32;;;;;;;0.47;0.25;;;;;;;;;;5050512;28;20056;-79
2021/07/19 06:50:57;;;;;;;0.10;0.10;;;;;;;;;;5050643;28;20033;-78
2021/07/19 06:53:23;;;;;;;0.10;0.10;;;;;;;;;;5048688;28;20029;-79
2021/07/19 06:55:49;;;;;;;0.10;0.10;;;;;;;;;;5050444;28;20025;-78
2021/07/19 06:58:16;;;;;;;0.20;0.20;;;;;;;;;;5048373;28;20025;-79
2021/07/19 07:00:42;;;;;;;0.30;0.30;;;;;;;;;;5050491;28;20041;-78
2021/07/19 07:03:08;;;;;;;0.55;0.20;;;;;;;;;;5049871;28;20491;-79
2021/07/19 07:05:33;;;;;;;0.32;0.32;;;;;;;;;;5050059;28;20037;-78
2021/07/19 07:07:59;;;;;;;0.13;0.13;;;;;;;;;;5050226;28;20073;-78
2021/07/19 07:10:26;;;;;;;0.10;0.10;;;;;;;;;;5050157;28;20048;-78
2021/07/19 07:12:52;;;;;;;0.15;0.15;;;;;;;;;;5049409;28;20037;-80
2021/07/19 07:15:18;;;;;;;0.20;0.20;;;;;;;;;;5050111;28;20382;-79
2021/07/19 07:17:44;;;;;;;0.20;0.20;;;;;;;;;;5050110;28;20029;-79
2021/07/19 07:20:11;;;;;;;0.20;0.20;;;;;;;;;;5049788;28;20422;-79
2021/07/19 07:22:37;;;;;;;0.17;0.17;;;;;;;;;;5048386;28;20029;-79
2021/07/19 07:25:04;;;;;;;0.10;0.10;;;;;;;;;;5050167;28;20100;-79
2021/07/19 07:27:30;;;;;;;0.10;0.10;;;;;;;;;;5050150;28;20045;-79
2021/07/19 07:29:56;;;;;;;0.20;0.20;;;;;;;;;;5049904;28;20382;-80
2021/07/19 07:32:22;;;;;;;0.20;0.20;;;;;;;;;;5054282;28;20021;-78
2021/07/19 07:34:48;;;;;;;0.10;0.10;;;;;;;;;;5053674;28;20063;-79
2021/07/19 07:37:14;;;;;;;0.20;0.20;;;;;;;;;;5053890;28;20025;-79
2021/07/19 07:39:40;;;;;;;0.10;0.10;;;;;;;;;;5053924;28;20021;-79
2021/07/19 07:42:07;;;;;;;;;;;;;;;;;;5054476;28;20040;-80
2021/07/19 07:44:33;;;;;;;0.10;0.10;;;;;;;;;;5052029;28;19958;-78
2021/07/19 07:46:59;;;;;;;0.10;0.10;;;;;;;;;;5053611;28;20036;-79
2021/07/19 07:49:26;;;;;;;0.10;0.10;;;;;;;;;;5052436;28;20134;-79
2021/07/19 07:51:53;;;;;;;0.10;0.10;;;;;;;;;;5054279;28;20114;-80
2021/07/19 07:54:20;;;;;;;0.10;0.10;;;;;;;;;;5053317;28;20043;-79
2021/07/19 07:56:46;;;;;;;0.10;0.10;;;;;;;;;;5053771;28;20028;-79
2021/07/19 07:59:14;;;;;;;0.22;0.22;;;;;;;;;;5052273;28;20539;-78
2021/07/19 08:01:40;;;;;;;0.10;0.10;;;;;;;;;;5053548;28;20033;-80
2021/07/19 08:04:06;;;;;;;0.10;0.10;;;;;;;;;;5053261;28;20041;-79
2021/07/19 08:06:32;;;;;;;0.20;0.20;;;;;;;;;;5053523;28;20441;-79
2021/07/19 08:08:58;;;;;;;0.20;0.20;;;;;;;;;;5053076;28;20021;-79
2021/07/19 08:11:26;;;;;;;0.10;0.10;;;;;;;;;;5053399;28;20096;-79
2021/07/19 08:13:52;;;;;;;0.10;0.10;;;;;;;;;;5053007;28;20032;-79
2021/07/19 08:16:18;;;;;;;0.25;0.25;;;;;;;;;;5053261;28;20404;-79
2021/07/19 08:18:44;;;;;;;0.10;0.10;;;;;;;;;;5053282;28;20460;-79
2021/07/19 08:21:10;;;;;;;0.25;0.25;;;;;;;;;;5051780;28;20052;-79
2021/07/19 08:23:36;;;;;;;0.20;0.20;;;;;;;;;;5052276;28;20041;-79
2021/07/19 08:26:02;;;;;;;0.20;0.20;;;;;;;;;;5053041;28;20082;-79
2021/07/19 08:28:28;;;;;;;0.10;0.10;;;;;;;;;;5053120;28;20434;-79
2021/07/19 08:30:54;;;;;;;0.22;0.20;;;;;;;;;;5051603;28;20083;-78
2021/07/19 08:33:20;;;;;;;0.10;0.10;;;;;;;;;;5052706;28;20467;-80
2021/07/19 08:35:46;;;;;;;0.00;0.00;;;;;;;;;;5051641;28;20035;-80
2021/07/19 08:38:13;;;;;;;0.10;0.10;;;;;;;;;;5051721;28;20024;-80
2021/07/19 08:40:38;;;;;;;0.13;0.13;;;;;;;;;;5052283;28;20044;-79
2021/07/19 08:43:06;;;;;;;0.38;0.20;;;;;;;;;;5051979;28;20021;-80
2021/07/19 08:45:32;;;;;;;0.20;0.20;;;;;;;;;;5052512;28;20045;-79
2021/07/19 08:48:00;;;;;;;0.17;0.17;;;;;;;;;;5051227;28;20453;-79
2021/07/19 08:50:26;;;;;;;0.10;0.10;;;;;;;;;;5053357;28;20479;-80
2021/07/19 08:52:54;;;;;;;0.10;0.10;;;;;;;;;;5052691;28;20025;-79
2021/07/19 08:55:20;;;;;;;0.10;0.10;;;;;;;;;;5052270;28;20041;-81
2021/07/19 08:57:47;;;;;;;0.30;0.20;;;;;;;;;;5052313;28;20021;-80
2021/07/19 09:00:15;;;;;;;0.10;0.10;;;;;;;;;;5052444;28;20154;-78
2021/07/19 09:02:40;;;;;;;;;;;;;;;;;;5051371;28;20226;-81
2021/07/19 09:05:07;;;;;;;0.10;0.10;;;;;;;;;;5052183;28;20452;-80
2021/07/19 09:07:33;;;;;;;0.10;0.10;;;;;;;;;;5051886;28;20140;-79
2021/07/19 09:10:01;;;;;;;0.20;0.20;;;;;;;;;;5051022;28;20227;-80
2021/07/19 09:12:32;;;;;;;0.00;0.00;;;;;;;;;;5052474;28;20051;-80
2021/07/19 09:14:58;;;;;;;0.10;0.10;;;;;;;;;;5050486;28;20029;-80
2021/07/19 09:17:25;;;;;;;0.13;0.13;;;;;;;;;;5052248;28;20095;-80
2021/07/19 09:19:51;;;;;;;0.25;0.25;;;;;;;;;;5051786;28;20378;-79
2021/07/19 09:22:25;;;;;;;0.10;0.10;;;;;;;;;;5052496;28;20129;-79
2021/07/19 09:24:52;;;;;;;0.10;0.10;;;;;;;;;;5051914;28;20369;-80
2021/07/19 09:27:20;;;;;;;0.20;0.20;;;;;;;;;;5052139;28;20024;-80
2021/07/19 09:29:46;;;;;;;0.10;0.10;;;;;;;;;;5052021;28;20078;-80
2021/07/19 09:32:12;;;;;;;0.10;0.10;;;;;;;;;;5051547;28;20135;-79
2021/07/19 09:34:41;;;;;;;0.10;0.10;;;;;;;;;;5051611;28;20135;-81
2021/07/19 09:37:10;;;;;;;0.10;0.10;;;;;;;;;;5051926;28;20119;-80
2021/07/19 09:39:44;;;;;;;0.10;0.10;;;;;;;;;;5051708;28;20486;-80
2021/07/19 09:42:10;;;;;;;0.30;0.30;;;;;;;;;;5050027;28;20033;-81
2021/07/19 09:44:36;;;;;;;0.10;0.10;;;;;;;;;;5051257;28;20021;-81
2021/07/19 09:47:05;;;;;;;0.10;0.10;;;;;;;;;;5051642;28;20029;-81
2021/07/19 09:49:32;;;;;;;0.13;0.13;;;;;;;;;;5051644;28;20479;-79
2021/07/19 09:51:59;;;;;;;0.15;0.15;;;;;;;;;;5051589;28;20025;-80
2021/07/19 09:54:32;;;;;;;0.10;0.10;;;;;;;;;;5051263;28;20044;-80
2021/07/19 09:57:01;;;;;;;0.10;0.10;;;;;;;;;;5051181;28;20463;-80
2021/07/19 09:59:27;;;;;;;0.20;0.20;;;;;;;;;;5051261;28;20049;-79
2021/07/19 10:01:53;;;;;;;0.10;0.10;;;;;;;;;;5051198;28;20483;-79
2021/07/19 10:04:21;;;;;;;0.10;0.10;;;;;;;;;;5051258;28;20041;-80
2021/07/19 10:06:50;;;;;;;0.03;0.03;;;;;;;;;;5050839;28;20275;-80
2021/07/19 10:09:17;;;;;;;0.20;0.20;;;;;;;;;;5051383;28;20389;-80
2021/07/19 10:11:49;;;;;;;0.10;0.10;;;;;;;;;;5051440;28;20481;-79
2021/07/19 10:14:24;;;;;;;0.10;0.10;;;;;;;;;;5051028;28;20018;-79
2021/07/19 10:16:50;;;;;;;0.10;0.10;;;;;;;;;;5050746;28;20029;-79
2021/07/19 10:19:16;;;;;;;0.10;0.10;;;;;;;;;;5050938;28;20103;-79
2021/07/19 10:21:42;;;;;;;0.17;0.17;;;;;;;;;;5050576;28;20037;-82
2021/07/19 10:24:09;;;;;;;0.10;0.10;;;;;;;;;;5051085;28;20529;-82
2021/07/19 10:26:36;;;;;;;0.10;0.10;;;;;;;;;;5050497;28;20086;-82
2021/07/19 10:29:03;;;;;;;0.00;0.00;;;;;;;;;;5050925;28;20430;-82
2021/07/19 10:31:29;;;;;;;0.03;0.03;;;;;;;;;;5050851;28;20059;-82
2021/07/19 10:33:57;;;;;;;0.10;0.10;;;;;;;;;;5050179;28;20447;-82
2021/07/19 10:36:25;;;;;;;0.10;0.10;;;;;;;;;;5050470;28;20045;-81
2021/07/19 10:38:54;;;;;;;0.10;0.10;;;;;;;;;;5050544;28;20536;-80
2021/07/19 10:41:22;;;;;;;0.10;0.10;;;;;;;;;;5050486;28;20041;-79
2021/07/19 10:43:58;;;;;;;0.08;0.08;;;;;;;;;;5050506;28;20040;-79
2021/07/19 10:46:27;;;;;;;0.20;0.20;;;;;;;;;;5050299;28;20029;-80
2021/07/19 10:49:02;;;;;;;0.10;0.10;;;;;;;;;;5049993;28;20025;-79
2021/07/19 10:51:37;;;;;;;0.10;0.10;;;;;;;;;;5050432;28;20492;-80
2021/07/19 10:54:10;;;;;;;0.10;0.10;;;;;;;;;;5050448;28;20029;-80
2021/07/19 10:56:36;;;;;;;0.10;0.10;;;;;;;;;;5050173;28;20183;-80
2021/07/19 10:59:02;;;;;;;0.10;0.10;;;;;;;;;;5049007;28;20108;-80
2021/07/19 11:01:29;;;;;;;0.05;0.05;;;;;;;;;;5049960;28;20033;-80
2021/07/19 11:03:57;;;;;;;0.20;0.20;;;;;;;;;;5049376;28;20127;-79
2021/07/19 11:06:32;;;;;;;0.10;0.10;;;;;;;;;;5049917;28;20713;-80
2021/07/19 11:08:58;;;;;;;0.10;0.10;;;;;;;;;;5050103;28;20028;-79
2021/07/19 11:11:28;;;;;;;0.10;0.10;;;;;;;;;;5050323;28;20025;-80
2021/07/19 11:13:55;;;;;;;0.10;0.10;;;;;;;;;;5050168;28;20111;-79
2021/07/19 11:16:22;;;;;;;0.25;0.20;;;;;;;;;;5049391;28;20052;-80
2021/07/19 11:18:55;;;;;;;0.10;0.10;;;;;;;;;;5050148;28;20099;-79
2021/07/19 11:21:26;;;;;;;0.10;0.10;;;;;;;;;;5049957;28;20067;-81
2021/07/19 11:23:52;;;;;;;0.13;0.13;;;;;;;;;;5050114;28;20028;-80
2021/07/19 11:26:26;;;;;;;0.05;0.05;;;;;;;;;;5049854;28;20051;-80
2021/07/19 11:28:57;;;;;;;0.10;0.10;;;;;;;;;;5050326;28;20044;-79
2021/07/19 11:31:28;;;;;;;0.10;0.10;;;;;;;;;;5050048;28;20384;-80
2021/07/19 11:33:59;;;;;;;0.10;0.10;;;;;;;;;;5049776;28;20133;-79
2021/07/19 11:36:28;;;;;;;0.03;0.03;;;;;;;;;;5048314;28;20036;-80
2021/07/19 11:38:58;;;;;;;0.17;0.17;;;;;;;;;;5049734;28;20036;-80
2021/07/19 11:41:27;;;;;;;0.10;0.10;;;;;;;;;;5049408;28;20479;-81
2021/07/19 11:43:54;;;;;;;0.10;0.10;;;;;;;;;;5048384;28;20025;-81
2021/07/19 11:46:24;;;;;;;0.10;0.10;;;;;;;;;;5049402;28;20029;-81
2021/07/19 11:48:51;;;;;;;0.10;0.10;;;;;;;;;;5050134;28;20029;-80
2021/07/19 11:51:20;;;;;;;0.10;0.10;;;;;;;;;;5049239;28;20533;-80
2021/07/19 11:53:46;;;;;;;0.10;0.10;;;;;;;;;;5049708;28;20021;-80
2021/07/19 11:56:12;;;;;;;0.13;0.13;;;;;;;;;;5049518;28;20044;-80
2021/07/19 11:58:42;;;;;;;0.30;0.30;;;;;;;;;;5047984;28;20299;-80
2021/07/19 12:01:09;;;;;;;0.30;0.30;;;;;;;;;;5049554;28;20095;-80
2021/07/19 12:03:35;;;;;;;0.10;0.10;;;;;;;;;;5049145;28;20045;-80
2021/07/19 12:06:02;;;;;;;0.10;0.10;;;;;;;;;;5048374;28;20021;-80
2021/07/19 12:08:35;;;;;;;0.22;0.22;;;;;;;;;;5049315;28;20143;-79
2021/07/19 12:11:02;;;;;;;0.30;0.30;;;;;;;;;;5049499;28;20079;-79
2021/07/19 12:13:38;;;;;;;0.20;0.20;;;;;;;;;;5049080;28;20036;-80
2021/07/19 12:16:04;;;;;;;0.40;0.40;;;;;;;;;;5049842;28;20355;-80
2021/07/19 12:18:31;;;;;;;0.30;0.30;;;;;;;;;;5051747;28;20040;-81
2021/07/19 12:20:59;;;;;;;0.40;0.40;;;;;;;;;;5053108;28;20037;-79
2021/07/19 12:23:35;;;;;;;0.38;0.38;;;;;;;;;;5053232;28;20032;-80
2021/07/19 12:26:01;;;;;;;;;;;;;;;;;;5053827;28;20029;-79
2021/07/19 12:28:27;;;;;;;0.32;0.32;;;;;;;;;;5050981;28;19916;-80
2021/07/19 12:30:54;;;;;;;0.30;0.30;;;;;;;;;;5051799;28;20539;-80
2021/07/19 12:33:23;;;;;;;0.35;0.35;;;;;;;;;;5053085;28;20066;-81
2021/07/19 12:35:50;;;;;;;0.40;0.40;;;;;;;;;;5035180;28;20029;-80
2021/07/19 12:38:16;;;;;;;0.40;0.40;;;;;;;;;;5052292;28;20391;-80
2021/07/19 12:40:42;;;;;;;0.40;0.40;;;;;;;;;;5052923;28;20035;-81
2021/07/19 12:43:09;;;;;;;0.40;0.40;;;;;;;;;;5052807;28;20101;-80
2021/07/19 12:45:35;;;;;;;0.50;0.50;;;;;;;;;;5052644;28;20134;-80
2021/07/19 12:48:01;;;;;;;0.60;0.60;;;;;;;;;;5052873;28;20143;-81
2021/07/19 12:50:27;;;;;;;0.50;0.50;;;;;;;;;;5052315;28;20033;-81
2021/07/19 12:52:53;;;;;;;0.52;0.52;;;;;;;;;;5052704;28;20544;-80
2021/07/19 12:55:24;;;;;;;0.68;0.68;;;;;;;;;;5054012;28;20024;-80
2021/07/19 12:57:51;;;;;;;0.60;0.60;;;;;;;;;;5053367;28;20547;-81
2021/07/19 13:00:17;;;;;;;0.65;0.65;;;;;;;;;;5051277;28;20075;-81
2021/07/19 13:02:44;;;;;;;0.60;0.60;;;;;;;;;;5051086;28;20094;-81
2021/07/19 13:05:12;;;;;;;0.70;0.70;;;;;;;;;;5052521;28;20059;-81
2021/07/19 13:07:39;;;;;;;0.80;0.80;;;;;;;;;;5052229;28;20128;-81
2021/07/19 13:10:09;;;;;;;0.70;0.70;;;;;;;;;;5052798;28;20024;-81
2021/07/19 13:12:36;;;;;;;0.80;0.80;;;;;;;;;;5052035;28;20744;-81
2021/07/19 13:15:04;;;;;;;0.80;0.80;;;;;;;;;;5052070;28;20033;-82
2021/07/19 13:17:31;;;;;;;0.80;0.80;;;;;;;;;;5052091;28;20057;-81
2021/07/19 13:20:04;;;;;;;0.80;0.80;;;;;;;;;;5052144;28;20100;-81
2021/07/19 13:22:31;;;;;;;0.90;0.90;;;;;;;;;;5052143;28;20033;-82
2021/07/19 13:24:58;;;;;;;1.00;1.00;;;;;;;;;;5051980;28;20025;-81
2021/07/19 13:27:25;;;;;;;1.00;1.00;;;;;;;;;;5051600;28;20025;-81
2021/07/19 13:29:56;;;;;;;0.90;0.90;;;;;;;;;;5051592;28;20044;-81
2021/07/19 13:32:23;;;;;;;1.00;1.00;;;;;;;;;;5052020;28;20025;-82
2021/07/19 13:34:56;;;;;;;0.90;0.90;;;;;;;;;;5052088;28;20103;-82
2021/07/19 13:37:22;;;;;;;1.00;1.00;;;;;;;;;;5050135;28;20021;-82
2021/07/19 13:39:48;;;;;;;1.00;1.00;;;;;;;;;;5051562;28;20396;-81
2021/07/19 13:42:15;;;;;;;1.10;1.10;;;;;;;;;;5051418;28;20025;-81
2021/07/19 13:44:42;;;;;;;1.10;1.10;;;;;;;;;;5051603;28;20379;-81
2021/07/19 13:47:08;;;;;;;1.10;1.10;;;;;;;;;;5051542;28;20046;-82
2021/07/19 13:49:35;;;;;;;1.20;1.20;;;;;;;;;;5051357;28;20041;-81
2021/07/19 13:52:01;;;;;;;1.20;1.20;;;;;;;;;;5051253;28;20029;-82
2021/07/19 13:54:27;;;;;;;1.20;1.20;;;;;;;;;;5051608;28;20031;-82
2021/07/19 13:56:53;;;;;;;1.20;1.20;;;;;;;;;;5051462;28;20127;-81
2021/07/19 13:59:19;;;;;;;1.20;1.20;;;;;;;;;;5051115;28;20033;-82
2021/07/19 14:01:46;;;;;;;1.20;1.20;;;;;;;;;;5051475;28;20043;-81
2021/07/19 14:04:13;;;;;;;1.20;1.20;;;;;;;;;;5049733;28;20384;-81
2021/07/19 14:06:39;;;;;;;1.30;1.30;;;;;;;;;;5050044;28;20095;-82
2021/07/19 14:09:06;;;;;;;1.30;1.30;;;;;;;;;;5049659;28;20396;-81
2021/07/19 14:11:32;;;;;;;1.20;1.20;;;;;;;;;;5049759;28;20451;-83
2021/07/19 14:13:59;;;;;;;1.20;1.20;;;;;;;;;;5051140;28;20020;-83
2021/07/19 14:16:25;;;;;;;1.30;1.30;;;;;;;;;;5050845;28;20029;-83
2021/07/19 14:18:51;;;;;;;1.30;1.30;;;;;;;;;;5050807;28;20459;-81
2021/07/19 14:21:17;;;;;;;1.30;1.30;;;;;;;;;;5050745;28;20037;-81
2021/07/19 14:23:43;;;;;;;1.33;1.33;;;;;;;;;;5050920;28;20025;-81
2021/07/19 14:26:09;;;;;;;1.30;1.30;;;;;;;;;;5050429;28;20036;-81
2021/07/19 14:28:35;;;;;;;1.30;1.30;;;;;;;;;;5050220;28;20173;-81
2021/07/19 14:31:02;;;;;;;1.30;1.30;;;;;;;;;;5050994;28;20060;-82
2021/07/19 14:33:28;;;;;;;1.30;1.30;;;;;;;;;;5050810;28;20029;-81
2021/07/19 14:35:54;;;;;;;1.30;1.30;;;;;;;;;;5049265;28;20025;-80
2021/07/19 14:38:20;;;;;;;1.30;1.30;;;;;;;;;;5050503;28;20025;-80
2021/07/19 14:40:46;;;;;;;1.25;1.25;;;;;;;;;;5050289;28;20116;-82
2021/07/19 14:43:12;;;;;;;1.30;1.30;;;;;;;;;;5050635;28;20025;-81
2021/07/19 14:45:38;;;;;;;1.20;1.20;;;;;;;;;;5050481;28;20020;-82